DLH370 EDDN-EDLW
Flight info
| Callsign | DLH370 |
|---|---|
| Flight time | N/A |
| Altitude | 24000 |
| Route | SULUS1C SULUS L604 DEMAB T842 ADEMI ADEMI2A |
| Aircraft | A20N/M-SDE2E3FGHIRWXY/LB1 |
Departure
| Time | 2026-05-01 14:26 |
|---|---|
| Airport | Nuremberg Airport (EDDN) |
Arrival
| Time | N/A |
|---|---|
| Airport | Dortmund Airport (EDLW) |
| Time | Latitude | Longitude | Altitude | Speed | Heading |
|---|---|---|---|---|---|
| 2026-05-01 14:05 | 49.49513 | 11.07790 | 1028 ft | 0 kts | 188° |
| 2026-05-01 14:16 | 49.49517 | 11.07791 | 1025 ft | 2 kts | 188° |
| 2026-05-01 14:16 | 49.49533 | 11.07796 | 1028 ft | 2 kts | 193° |
| 2026-05-01 14:17 | 49.49549 | 11.07802 | 1029 ft | 2 kts | 200° |
| 2026-05-01 14:17 | 49.49564 | 11.07813 | 1029 ft | 2 kts | 216° |
| 2026-05-01 14:17 | 49.49575 | 11.07831 | 1028 ft | 2 kts | 251° |
| 2026-05-01 14:17 | 49.49577 | 11.07854 | 1030 ft | 1 kts | 278° |
| 2026-05-01 14:18 | 49.49577 | 11.07861 | 1030 ft | 0 kts | 281° |
| 2026-05-01 14:18 | 49.49577 | 11.07859 | 1030 ft | 0 kts | 281° |
| 2026-05-01 14:19 | 49.49582 | 11.07822 | 1030 ft | 5 kts | 281° |
| 2026-05-01 14:19 | 49.49583 | 11.07810 | 1029 ft | 3 kts | 283° |
| 2026-05-01 14:19 | 49.49608 | 11.07777 | 1030 ft | 6 kts | 339° |
| 2026-05-01 14:19 | 49.49654 | 11.07769 | 1031 ft | 8 kts | 349° |
| 2026-05-01 14:20 | 49.49682 | 11.07732 | 1031 ft | 8 kts | 296° |
| 2026-05-01 14:20 | 49.49710 | 11.07483 | 1029 ft | 17 kts | 278° |
| 2026-05-01 14:20 | 49.49729 | 11.07283 | 1026 ft | 21 kts | 279° |
| 2026-05-01 14:21 | 49.49754 | 11.07037 | 1022 ft | 26 kts | 278° |
| 2026-05-01 14:21 | 49.49783 | 11.06733 | 1017 ft | 31 kts | 278° |
| 2026-05-01 14:21 | 49.49815 | 11.06398 | 1019 ft | 29 kts | 278° |
| 2026-05-01 14:22 | 49.49900 | 11.05976 | 1021 ft | 18 kts | 333° |
| 2026-05-01 14:22 | 49.49954 | 11.05942 | 1020 ft | 0 kts | 340° |
| 2026-05-01 14:23 | 49.49962 | 11.05939 | 1019 ft | 4 kts | 348° |
| 2026-05-01 14:24 | 49.50020 | 11.05957 | 1018 ft | 13 kts | 32° |
| 2026-05-01 14:24 | 49.50043 | 11.06023 | 1019 ft | 0 kts | 93° |
| 2026-05-01 14:25 | 49.50036 | 11.06103 | 1020 ft | 34 kts | 98° |
| 2026-05-01 14:25 | 49.49956 | 11.06914 | 1019 ft | 115 kts | 98° |
| 2026-05-01 14:26 | 49.49802 | 11.08392 | 1293 ft | 150 kts | 102° |
| 2026-05-01 14:26 | 49.49474 | 11.11738 | 2829 ft | 171 kts | 98° |
| 2026-05-01 14:26 | 49.49296 | 11.13627 | 3600 ft | 181 kts | 99° |
| 2026-05-01 14:27 | 49.49172 | 11.15618 | 4265 ft | 203 kts | 88° |
| 2026-05-01 14:27 | 49.49321 | 11.17952 | 4724 ft | 233 kts | 86° |
| 2026-05-01 14:27 | 49.49557 | 11.20535 | 5245 ft | 258 kts | 75° |
| 2026-05-01 14:28 | 49.51982 | 11.24530 | 7186 ft | 275 kts | 33° |
| 2026-05-01 14:28 | 49.53667 | 11.25997 | 7604 ft | 279 kts | 32° |
| 2026-05-01 14:28 | 49.55335 | 11.27539 | 7836 ft | 279 kts | 36° |
| 2026-05-01 14:28 | 49.56930 | 11.29198 | 8011 ft | 275 kts | 37° |
| 2026-05-01 14:29 | 49.58677 | 11.30464 | 8298 ft | 284 kts | 14° |
| 2026-05-01 14:29 | 49.60671 | 11.30443 | 9137 ft | 291 kts | 347° |
| 2026-05-01 14:30 | 49.65887 | 11.24656 | 11068 ft | 344 kts | 320° |
| 2026-05-01 14:30 | 49.67711 | 11.22166 | 11741 ft | 353 kts | 320° |
| 2026-05-01 14:30 | 49.69563 | 11.19652 | 12654 ft | 356 kts | 320° |
| 2026-05-01 14:31 | 49.73351 | 11.14578 | 14368 ft | 365 kts | 321° |
| 2026-05-01 14:31 | 49.75286 | 11.12001 | 15147 ft | 368 kts | 321° |
| 2026-05-01 14:31 | 49.77240 | 11.09400 | 15933 ft | 373 kts | 321° |
| 2026-05-01 14:31 | 49.79217 | 11.06765 | 16691 ft | 377 kts | 321° |
| 2026-05-01 14:32 | 49.81215 | 11.04100 | 17449 ft | 381 kts | 321° |
| 2026-05-01 14:32 | 49.83210 | 11.01436 | 18183 ft | 385 kts | 321° |
| 2026-05-01 14:32 | 49.85254 | 10.98704 | 18891 ft | 389 kts | 321° |
| 2026-05-01 14:32 | 49.87307 | 10.95955 | 19579 ft | 391 kts | 321° |
| 2026-05-01 14:33 | 49.89374 | 10.93186 | 20192 ft | 396 kts | 321° |
| 2026-05-01 14:33 | 49.91466 | 10.90383 | 20829 ft | 399 kts | 321° |
| 2026-05-01 14:33 | 49.93579 | 10.87543 | 21499 ft | 401 kts | 321° |
| 2026-05-01 14:33 | 49.95700 | 10.84687 | 22155 ft | 404 kts | 321° |
| 2026-05-01 14:34 | 49.97830 | 10.81818 | 22806 ft | 407 kts | 321° |
| 2026-05-01 14:34 | 49.99977 | 10.78921 | 23457 ft | 410 kts | 321° |
| 2026-05-01 14:34 | 50.02117 | 10.76032 | 24024 ft | 414 kts | 321° |
| 2026-05-01 14:34 | 50.04301 | 10.73078 | 24249 ft | 415 kts | 321° |
| 2026-05-01 14:35 | 50.06481 | 10.70126 | 24337 ft | 415 kts | 320° |
| 2026-05-01 14:35 | 50.08661 | 10.67171 | 24353 ft | 415 kts | 320° |
| 2026-05-01 14:35 | 50.10843 | 10.64209 | 24352 ft | 415 kts | 320° |
| 2026-05-01 14:35 | 50.13022 | 10.61247 | 24348 ft | 415 kts | 320° |
| 2026-05-01 14:36 | 50.15199 | 10.58284 | 24348 ft | 415 kts | 320° |
| 2026-05-01 14:36 | 50.17389 | 10.55302 | 24352 ft | 417 kts | 320° |
| 2026-05-01 14:36 | 50.19547 | 10.52360 | 24350 ft | 417 kts | 320° |
| 2026-05-01 14:36 | 50.21736 | 10.49369 | 24347 ft | 418 kts | 320° |
| 2026-05-01 14:37 | 50.23817 | 10.46194 | 24348 ft | 417 kts | 315° |
| 2026-05-01 14:37 | 50.25833 | 10.42931 | 24354 ft | 417 kts | 315° |
| 2026-05-01 14:37 | 50.27864 | 10.39673 | 24351 ft | 418 kts | 315° |
| 2026-05-01 14:37 | 50.29898 | 10.36407 | 24353 ft | 419 kts | 315° |
| 2026-05-01 14:38 | 50.31928 | 10.33143 | 24352 ft | 418 kts | 315° |
| 2026-05-01 14:38 | 50.33953 | 10.29879 | 24355 ft | 418 kts | 315° |
| 2026-05-01 14:38 | 50.35919 | 10.26508 | 24353 ft | 420 kts | 310° |
| 2026-05-01 14:38 | 50.37773 | 10.22978 | 24351 ft | 418 kts | 313° |
| 2026-05-01 14:39 | 50.39795 | 10.19682 | 24350 ft | 419 kts | 315° |